createdAt,value
2018-01-12T00:00:33.870Z,67.80
2018-01-12T00:01:33.866Z,70.20
2018-01-12T00:02:33.882Z,66.10
2018-01-12T00:03:33.893Z,66.70
2018-01-12T00:04:33.952Z,65.80
2018-01-12T00:05:33.914Z,65.60
2018-01-12T00:06:33.924Z,66.50
2018-01-12T00:07:33.945Z,64.80
2018-01-12T00:08:33.956Z,67.00
2018-01-12T00:09:33.963Z,70.40
2018-01-12T00:10:33.978Z,71.50
2018-01-12T00:11:33.993Z,67.40
2018-01-12T00:12:34.002Z,69.60
2018-01-12T00:13:34.010Z,70.40
2018-01-12T00:14:34.039Z,71.60
2018-01-12T00:15:34.086Z,75.50
2018-01-12T00:16:34.050Z,79.20
2018-01-12T00:17:34.059Z,80.50
2018-01-12T00:18:34.085Z,78.80
2018-01-12T00:19:34.090Z,77.90
2018-01-12T00:20:34.107Z,74.00
2018-01-12T00:21:34.108Z,73.20
2018-01-12T00:22:34.128Z,71.10
2018-01-12T00:23:34.139Z,73.80
2018-01-12T00:24:34.146Z,74.50
2018-01-12T00:25:34.174Z,84.50
2018-01-12T00:26:34.178Z,83.30
2018-01-12T00:27:34.186Z,81.00
2018-01-12T00:28:34.200Z,72.70
2018-01-12T00:29:34.212Z,73.50
2018-01-12T00:30:34.225Z,77.80
2018-01-12T00:31:34.233Z,73.20
2018-01-12T00:32:34.242Z,75.10
2018-01-12T00:33:34.270Z,80.50
2018-01-12T00:34:34.274Z,73.60
2018-01-12T00:35:34.288Z,71.10
2018-01-12T00:36:34.291Z,75.00
2018-01-12T00:37:34.319Z,72.80
2018-01-12T00:38:34.321Z,75.20
2018-01-12T00:39:34.342Z,77.60
2018-01-12T00:40:34.347Z,73.80
2018-01-12T00:41:34.360Z,79.40
2018-01-12T00:42:34.368Z,77.70
2018-01-12T00:43:34.377Z,77.70
2018-01-12T00:44:34.400Z,77.60
2018-01-12T00:45:34.414Z,81.80
2018-01-12T00:46:34.416Z,80.50
2018-01-12T00:47:34.425Z,81.80
2018-01-12T00:48:34.454Z,80.40
2018-01-12T00:49:34.465Z,72.50
2018-01-12T00:50:34.533Z,75.00
2018-01-12T00:51:34.473Z,70.00
2018-01-12T00:52:34.495Z,68.50
2018-01-12T00:53:34.510Z,66.30
2018-01-12T00:54:34.533Z,67.20
2018-01-12T00:55:34.522Z,68.10
2018-01-12T00:56:34.550Z,64.60
2018-01-12T00:57:34.557Z,68.90
2018-01-12T00:58:34.562Z,66.20
2018-01-12T00:59:34.581Z,64.60
2018-01-12T01:00:34.592Z,65.70
2018-01-12T01:01:34.600Z,64.60
2018-01-12T01:02:34.609Z,65.80
2018-01-12T01:03:34.931Z,67.10
2018-01-12T01:04:34.640Z,69.80
2018-01-12T01:05:34.655Z,68.50
2018-01-12T01:06:34.657Z,70.30
2018-01-12T01:07:34.678Z,76.60
2018-01-12T01:08:34.694Z,73.80
2018-01-12T01:09:34.703Z,74.60
2018-01-12T01:10:34.706Z,71.60
2018-01-12T01:11:34.727Z,72.30
2018-01-12T01:12:34.745Z,74.40
2018-01-12T01:13:34.745Z,73.90
2018-01-12T01:14:34.753Z,73.60
2018-01-12T01:15:34.782Z,71.40
2018-01-12T01:16:34.791Z,71.60
2018-01-12T01:17:34.799Z,73.00
2018-01-12T01:18:35.103Z,73.40
2018-01-12T01:19:34.823Z,75.10
2018-01-12T01:20:34.840Z,72.80
2018-01-12T01:21:34.839Z,71.00
2018-01-12T01:22:34.857Z,72.10
2018-01-12T01:23:34.871Z,75.00
2018-01-12T01:24:34.880Z,73.70
2018-01-12T01:25:34.900Z,71.50
2018-01-12T01:26:34.898Z,70.30
2018-01-12T01:27:34.924Z,67.10
2018-01-12T01:28:34.928Z,69.00
2018-01-12T01:29:34.937Z,71.10
2018-01-12T01:30:34.965Z,69.90
2018-01-12T01:31:34.967Z,72.50
2018-01-12T01:32:34.981Z,71.90
2018-01-12T01:33:34.985Z,71.50
2018-01-12T01:34:35.006Z,76.60
2018-01-12T01:35:35.034Z,76.40
2018-01-12T01:36:35.024Z,70.90
2018-01-12T01:37:35.038Z,74.90
2018-01-12T01:38:35.054Z,73.80
2018-01-12T01:39:35.063Z,73.20
2018-01-12T01:40:35.078Z,77.70
2018-01-12T01:41:35.080Z,75.80
2018-01-12T01:42:35.109Z,72.90
2018-01-12T01:43:35.111Z,72.30
2018-01-12T01:44:35.127Z,73.20
2018-01-12T01:45:35.136Z,78.70
2018-01-12T01:46:35.149Z,78.40
2018-01-12T01:47:35.165Z,77.80
2018-01-12T01:48:35.180Z,79.10
2018-01-12T01:49:35.184Z,77.30
2018-01-12T01:50:35.205Z,75.60
2018-01-12T01:51:35.213Z,74.30
2018-01-12T01:52:35.223Z,69.20
2018-01-12T01:53:35.231Z,69.20
2018-01-12T01:54:35.246Z,72.00
2018-01-12T01:55:35.256Z,70.80
2018-01-12T01:56:35.264Z,71.00
2018-01-12T01:57:35.273Z,71.10
2018-01-12T01:58:35.294Z,75.20
2018-01-12T01:59:35.304Z,73.70
2018-01-12T02:00:35.313Z,74.00
2018-01-12T02:01:35.328Z,71.60
2018-01-12T02:02:35.342Z,70.00
2018-01-12T02:03:35.352Z,70.00
2018-01-12T02:04:35.362Z,69.10
2018-01-12T02:05:35.376Z,68.40
2018-01-12T02:06:35.379Z,66.90
2018-01-12T02:07:35.399Z,67.90
2018-01-12T02:08:35.416Z,69.30
2018-01-12T02:09:35.417Z,68.50
2018-01-12T02:10:35.426Z,69.20
2018-01-12T02:11:35.454Z,75.70
2018-01-12T02:12:35.457Z,73.90
2018-01-12T02:13:35.474Z,77.50
2018-01-12T02:14:35.474Z,73.10
2018-01-12T02:15:35.503Z,77.10
2018-01-12T02:16:35.504Z,77.30
2018-01-12T02:17:35.512Z,67.90
2018-01-12T02:18:35.822Z,70.60
2018-01-12T02:19:35.544Z,68.30
2018-01-12T02:20:35.559Z,70.40
2018-01-12T02:21:35.567Z,71.00
2018-01-12T02:22:35.570Z,70.20
2018-01-12T02:23:35.592Z,73.10
2018-01-12T02:24:35.600Z,72.40
2018-01-12T02:25:35.610Z,67.70
2018-01-12T02:26:35.625Z,67.90
2018-01-12T02:27:35.628Z,69.00
2018-01-12T02:28:35.648Z,73.20
2018-01-12T02:29:35.663Z,72.20
2018-01-12T02:30:35.666Z,71.10
2018-01-12T02:31:35.683Z,72.80
2018-01-12T02:32:35.697Z,74.70
2018-01-12T02:33:35.713Z,78.30
2018-01-12T02:34:35.722Z,72.90
2018-01-12T02:35:35.730Z,72.60
2018-01-12T02:36:35.744Z,76.70
2018-01-12T02:37:35.755Z,73.30
2018-01-12T02:38:36.082Z,79.90
2018-01-12T02:39:35.772Z,74.40
2018-01-12T02:40:35.793Z,72.90
2018-01-12T02:41:35.809Z,76.60
2018-01-12T02:42:35.818Z,73.20
2018-01-12T02:43:35.840Z,72.40
2018-01-12T02:44:35.848Z,75.30
2018-01-12T02:45:35.858Z,73.30
2018-01-12T02:46:35.858Z,76.90
2018-01-12T02:47:35.868Z,73.40
2018-01-12T02:48:35.897Z,71.50
2018-01-12T02:49:35.905Z,71.90
2018-01-12T02:50:35.914Z,70.90
2018-01-12T02:51:35.923Z,71.00
2018-01-12T02:52:35.942Z,72.60
2018-01-12T02:53:35.953Z,69.50
2018-01-12T02:54:35.960Z,67.60
2018-01-12T02:55:35.966Z,65.90
2018-01-12T02:56:35.992Z,68.80
2018-01-12T02:57:35.994Z,67.10
2018-01-12T02:58:36.010Z,71.30
2018-01-12T02:59:36.012Z,70.30
2018-01-12T03:00:36.035Z,70.60
2018-01-12T03:01:36.046Z,70.60
2018-01-12T03:02:36.051Z,75.70
2018-01-12T03:03:36.059Z,72.20
2018-01-12T03:04:36.081Z,72.30
2018-01-12T03:05:36.090Z,69.10
2018-01-12T03:06:36.099Z,69.20
2018-01-12T03:07:36.109Z,71.70
2018-01-12T03:08:36.129Z,71.80
2018-01-12T03:09:36.149Z,68.90
2018-01-12T03:10:36.153Z,66.70
2018-01-12T03:11:36.163Z,68.30
2018-01-12T03:12:36.178Z,73.80
2018-01-12T03:13:36.192Z,75.10
2018-01-12T03:14:36.195Z,67.40
2018-01-12T03:15:36.205Z,70.70
2018-01-12T03:16:36.226Z,69.70
2018-01-12T03:17:36.244Z,71.90
2018-01-12T03:18:36.242Z,73.40
2018-01-12T03:19:36.252Z,69.40
2018-01-12T03:20:36.274Z,67.70
2018-01-12T03:21:36.282Z,68.30
2018-01-12T03:22:36.295Z,66.30
2018-01-12T03:23:36.307Z,65.10
2018-01-12T03:24:36.316Z,62.90
2018-01-12T03:25:36.333Z,64.20
2018-01-12T03:26:36.338Z,72.10
2018-01-12T03:27:36.355Z,67.50
2018-01-12T03:28:36.660Z,67.30
2018-01-12T03:29:36.386Z,70.00
2018-01-12T03:30:36.389Z,68.70
2018-01-12T03:31:36.402Z,69.70
2018-01-12T03:32:36.406Z,70.00
2018-01-12T03:33:36.427Z,68.00
2018-01-12T03:34:36.436Z,66.90
2018-01-12T03:35:36.444Z,65.40
2018-01-12T03:36:36.455Z,66.00
2018-01-12T03:37:36.487Z,66.90
2018-01-12T03:38:36.784Z,65.90
2018-01-12T03:39:36.492Z,65.00
2018-01-12T03:40:36.509Z,65.60
2018-01-12T03:41:36.513Z,63.80
2018-01-12T03:42:36.532Z,64.00
2018-01-12T03:43:36.548Z,64.70
2018-01-12T03:44:36.557Z,66.00
2018-01-12T03:45:36.566Z,64.90
2018-01-12T03:46:36.580Z,62.60
2018-01-12T03:47:36.590Z,62.50
2018-01-12T03:48:36.603Z,63.50
2018-01-12T03:49:36.607Z,65.30
2018-01-12T03:50:36.635Z,62.80
2018-01-12T03:51:36.643Z,63.30
2018-01-12T03:52:36.646Z,63.60
2018-01-12T03:53:36.661Z,65.20
2018-01-12T03:54:36.677Z,67.80
2018-01-12T03:55:36.692Z,69.50
2018-01-12T03:56:36.702Z,67.90
2018-01-12T03:57:36.702Z,65.80
2018-01-12T03:58:36.730Z,67.20
2018-01-12T03:59:36.734Z,67.70
2018-01-12T04:00:36.749Z,65.50
2018-01-12T04:01:36.809Z,64.70
2018-01-12T04:02:36.773Z,65.30
2018-01-12T04:03:36.788Z,64.40
2018-01-12T04:04:36.799Z,63.20
2018-01-12T04:05:36.805Z,67.60
2018-01-12T04:06:36.823Z,67.20
2018-01-12T04:07:36.830Z,67.70
2018-01-12T04:08:36.838Z,67.80
2018-01-12T04:09:36.853Z,69.80
2018-01-12T04:10:36.868Z,70.30
2018-01-12T04:11:36.877Z,71.70
2018-01-12T04:12:36.886Z,71.80
2018-01-12T04:13:36.894Z,69.20
2018-01-12T04:14:36.924Z,68.10
2018-01-12T04:15:36.932Z,67.80
2018-01-12T04:16:36.934Z,67.10
2018-01-12T04:17:36.944Z,72.70
2018-01-12T04:18:36.954Z,71.60
2018-01-12T04:19:36.974Z,70.60
2018-01-12T04:20:36.994Z,77.00
2018-01-12T04:21:36.997Z,72.70
2018-01-12T04:22:37.001Z,74.10
2018-01-12T04:23:37.022Z,72.40
2018-01-12T04:24:37.037Z,71.10
2018-01-12T04:25:37.040Z,77.00
2018-01-12T04:26:37.049Z,81.70
2018-01-12T04:27:37.072Z,73.40
2018-01-12T04:28:37.080Z,77.70
2018-01-12T04:29:37.087Z,76.80
2018-01-12T04:30:37.097Z,87.60
2018-01-12T04:31:37.118Z,82.00
2018-01-12T04:32:37.126Z,80.60
2018-01-12T04:33:37.142Z,80.60
2018-01-12T04:34:37.144Z,80.30
2018-01-12T04:35:37.167Z,75.10
2018-01-12T04:36:37.175Z,78.60
2018-01-12T04:37:37.183Z,73.40
2018-01-12T04:38:37.493Z,74.20
2018-01-12T04:39:37.202Z,82.20
2018-01-12T04:40:37.242Z,81.60
2018-01-12T04:41:37.232Z,85.10
2018-01-12T04:42:37.240Z,83.30
2018-01-12T04:43:37.249Z,93.40
2018-01-12T04:44:37.270Z,85.40
2018-01-12T04:45:37.280Z,89.00
2018-01-12T04:46:37.288Z,85.80
2018-01-12T04:47:37.306Z,87.60
2018-01-12T04:48:37.314Z,86.50
2018-01-12T04:49:37.327Z,83.00
2018-01-12T04:50:37.336Z,83.10
2018-01-12T04:51:37.346Z,84.50
2018-01-12T04:52:37.354Z,79.30
2018-01-12T04:53:37.371Z,82.60
2018-01-12T04:54:37.386Z,85.50
2018-01-12T04:55:37.394Z,82.30
2018-01-12T04:56:37.410Z,86.40
2018-01-12T04:57:37.419Z,81.10
2018-01-12T04:58:37.740Z,81.90
2018-01-12T04:59:37.451Z,83.80
2018-01-12T05:00:37.457Z,76.70
2018-01-12T05:01:37.462Z,79.50
2018-01-12T05:02:37.477Z,76.00
2018-01-12T05:03:37.490Z,85.50
2018-01-12T05:04:37.499Z,78.90
2018-01-12T05:05:37.509Z,72.60
2018-01-12T05:06:37.517Z,73.80
2018-01-12T05:07:37.546Z,71.50
2018-01-12T05:08:37.548Z,71.10
2018-01-12T05:09:37.563Z,73.40
2018-01-12T05:10:37.571Z,71.60
2018-01-12T05:11:37.581Z,71.40
2018-01-12T05:12:37.595Z,71.00
2018-01-12T05:13:37.610Z,73.60
2018-01-12T05:14:37.629Z,72.20
2018-01-12T05:15:37.622Z,78.30
2018-01-12T05:16:37.650Z,74.40
2018-01-12T05:17:37.652Z,77.60
2018-01-12T05:18:37.963Z,73.30
2018-01-12T05:19:37.677Z,72.50
2018-01-12T05:20:37.685Z,75.20
2018-01-12T05:21:37.700Z,79.50
2018-01-12T05:22:37.710Z,74.80
2018-01-12T05:23:37.718Z,74.80
2018-01-12T05:24:37.728Z,68.70
2018-01-12T05:25:37.737Z,73.60
2018-01-12T05:26:37.756Z,72.40
2018-01-12T05:27:37.767Z,74.20
2018-01-12T05:28:37.774Z,75.90
2018-01-12T05:29:37.784Z,83.90
2018-01-12T05:30:37.795Z,81.20
2018-01-12T05:31:37.827Z,76.20
2018-01-12T05:32:37.823Z,82.00
2018-01-12T05:33:38.131Z,69.40
2018-01-12T05:34:37.849Z,71.50
2018-01-12T05:35:37.869Z,67.40
2018-01-12T05:36:37.878Z,75.40
2018-01-12T05:37:37.887Z,74.70
2018-01-12T05:38:38.195Z,72.50
2018-01-12T05:39:37.906Z,69.80
2018-01-12T05:40:37.926Z,70.70
2018-01-12T05:41:37.928Z,63.90
2018-01-12T05:42:37.938Z,70.50
2018-01-12T05:43:37.944Z,67.60
2018-01-12T05:44:37.980Z,67.50
2018-01-12T05:45:37.983Z,68.40
2018-01-12T05:46:37.985Z,63.80
2018-01-12T05:47:38.025Z,61.90
2018-01-12T05:48:38.016Z,64.80
2018-01-12T05:49:38.024Z,68.80
2018-01-12T05:50:38.037Z,65.10
2018-01-12T05:51:38.048Z,59.70
2018-01-12T05:52:38.051Z,60.60
2018-01-12T05:53:38.073Z,63.00
2018-01-12T05:54:38.087Z,64.70
2018-01-12T05:55:38.090Z,62.80
2018-01-12T05:56:38.099Z,62.40
2018-01-12T05:57:38.114Z,63.10
2018-01-12T05:58:38.116Z,61.90
2018-01-12T05:59:38.143Z,62.50
2018-01-12T06:00:38.146Z,59.90
2018-01-12T06:01:38.162Z,62.30
2018-01-12T06:02:38.166Z,63.30
2018-01-12T06:03:38.476Z,65.30
2018-01-12T06:04:38.196Z,62.30
2018-01-12T06:05:38.211Z,60.30
2018-01-12T06:06:38.212Z,60.20
2018-01-12T06:07:38.228Z,59.90
2018-01-12T06:08:38.238Z,61.40
2018-01-12T06:09:38.254Z,68.60
2018-01-12T06:10:38.268Z,64.90
2018-01-12T06:11:38.269Z,60.10
2018-01-12T06:12:38.290Z,60.10
2018-01-12T06:13:38.287Z,56.90
2018-01-12T06:14:38.308Z,55.90
2018-01-12T06:15:38.317Z,57.40
2018-01-12T06:16:38.327Z,57.50
2018-01-12T06:17:38.353Z,53.80
2018-01-12T06:18:38.344Z,55.10
2018-01-12T06:19:38.376Z,54.70
2018-01-12T06:20:38.377Z,54.30
2018-01-12T06:21:38.384Z,53.40
2018-01-12T06:22:38.399Z,53.30
2018-01-12T06:23:38.401Z,56.20
2018-01-12T06:24:38.430Z,53.40
2018-01-12T06:25:38.433Z,53.40
2018-01-12T06:26:38.440Z,56.80
2018-01-12T06:27:38.456Z,56.30
2018-01-12T06:28:38.459Z,58.70
2018-01-12T06:29:38.479Z,51.00
2018-01-12T06:30:38.489Z,52.90
2018-01-12T06:31:38.498Z,55.40
2018-01-12T06:32:38.507Z,57.20
2018-01-12T06:33:38.515Z,55.10
2018-01-12T06:34:38.536Z,54.90
2018-01-12T06:35:38.551Z,55.00
2018-01-12T06:36:38.560Z,55.80
2018-01-12T06:37:38.563Z,53.90
2018-01-12T06:38:38.882Z,55.40
2018-01-12T06:39:38.593Z,51.80
2018-01-12T06:40:38.610Z,52.30
2018-01-12T06:41:38.610Z,51.30
2018-01-12T06:42:38.620Z,53.10
2018-01-12T06:43:38.639Z,54.40
2018-01-12T06:44:38.650Z,49.20
2018-01-12T06:45:38.659Z,52.60
2018-01-12T06:46:38.667Z,55.60
2018-01-12T06:47:38.678Z,52.90
2018-01-12T06:48:38.686Z,51.30
2018-01-12T06:49:38.702Z,53.70
2018-01-12T06:50:38.723Z,58.40
2018-01-12T06:51:38.732Z,56.20
2018-01-12T06:52:38.734Z,54.90
2018-01-12T06:53:38.742Z,54.90
2018-01-12T06:54:38.761Z,50.30
2018-01-12T06:55:38.782Z,52.00
2018-01-12T06:56:38.792Z,50.50
2018-01-12T06:57:38.795Z,55.80
2018-01-12T06:58:38.801Z,52.50
2018-01-12T06:59:38.808Z,53.10
2018-01-12T07:00:38.830Z,55.50
2018-01-12T07:01:38.858Z,54.40
2018-01-12T07:02:38.848Z,54.30
2018-01-12T07:03:38.856Z,53.10
2018-01-12T07:04:38.872Z,52.80
2018-01-12T07:05:38.876Z,52.50
2018-01-12T07:06:38.912Z,49.20
2018-01-12T07:07:38.905Z,49.90
2018-01-12T07:08:38.915Z,49.10
2018-01-12T07:09:38.929Z,48.20
2018-01-12T07:10:38.945Z,48.50
2018-01-12T07:11:38.953Z,50.00
2018-01-12T07:12:38.969Z,47.00
2018-01-12T07:13:38.987Z,48.20
2018-01-12T07:14:38.980Z,47.70
2018-01-12T07:15:39.001Z,47.60
2018-01-12T07:16:39.009Z,50.00
2018-01-12T07:17:39.019Z,49.70
2018-01-12T07:18:39.034Z,49.40
2018-01-12T07:19:39.037Z,47.50
2018-01-12T07:20:39.058Z,47.60
2018-01-12T07:21:39.068Z,48.90
2018-01-12T07:22:39.076Z,48.40
2018-01-12T07:23:39.086Z,45.90
2018-01-12T07:24:39.101Z,46.00
2018-01-12T07:25:39.103Z,46.20
2018-01-12T07:26:39.114Z,46.50
2018-01-12T07:27:39.141Z,45.30
2018-01-12T07:28:39.148Z,47.00
2018-01-12T07:29:39.152Z,47.20
2018-01-12T07:30:39.159Z,46.60
2018-01-12T07:31:39.206Z,46.10
2018-01-12T07:32:39.189Z,46.20
2018-01-12T07:33:39.198Z,46.50
2018-01-12T07:34:39.209Z,44.20
2018-01-12T07:35:39.216Z,43.70
2018-01-12T07:36:39.226Z,43.80
2018-01-12T07:37:39.236Z,42.20
2018-01-12T07:38:39.256Z,44.70
2018-01-12T07:39:39.264Z,44.40
2018-01-12T07:40:39.274Z,43.80
2018-01-12T07:41:39.289Z,40.20
2018-01-12T07:42:39.292Z,42.80
2018-01-12T07:43:39.312Z,42.10
2018-01-12T07:44:39.328Z,39.90
2018-01-12T07:45:39.336Z,40.30
2018-01-12T07:46:39.339Z,41.20
2018-01-12T07:47:39.350Z,40.40
2018-01-12T07:48:39.371Z,39.00
2018-01-12T07:49:39.384Z,42.40
2018-01-12T07:50:39.388Z,42.90
2018-01-12T07:51:39.398Z,40.00
2018-01-12T07:52:39.406Z,42.50
2018-01-12T07:53:39.427Z,40.90
2018-01-12T07:54:39.481Z,41.80
2018-01-12T07:55:39.451Z,40.90
2018-01-12T07:56:39.471Z,38.60
2018-01-12T07:57:39.461Z,38.70
2018-01-12T07:58:39.484Z,41.20
2018-01-12T07:59:39.493Z,38.90
2018-01-12T08:00:39.508Z,37.90
2018-01-12T08:01:39.517Z,44.40
2018-01-12T08:02:39.519Z,39.30
2018-01-12T08:03:39.540Z,38.00
2018-01-12T08:04:39.549Z,38.70
2018-01-12T08:05:39.566Z,39.80
2018-01-12T08:06:39.566Z,40.00
2018-01-12T08:07:39.583Z,38.30
2018-01-12T08:08:39.597Z,35.90
2018-01-12T08:09:39.614Z,36.40
2018-01-12T08:10:39.621Z,37.90
2018-01-12T08:11:39.632Z,37.00
2018-01-12T08:12:39.640Z,36.20
2018-01-12T08:13:39.654Z,36.60
2018-01-12T08:14:39.668Z,36.60
2018-01-12T08:15:39.673Z,36.20
2018-01-12T08:16:39.680Z,35.40
2018-01-12T08:17:39.688Z,36.20
2018-01-12T08:18:39.717Z,35.00
2018-01-12T08:19:39.719Z,37.50
2018-01-12T08:20:39.730Z,36.20
2018-01-12T08:21:39.744Z,37.60
2018-01-12T08:22:39.748Z,36.80
2018-01-12T08:23:39.781Z,36.60
2018-01-12T08:24:39.784Z,37.10
2018-01-12T08:25:39.786Z,37.00
2018-01-12T08:26:39.795Z,36.50
2018-01-12T08:27:39.816Z,38.10
2018-01-12T08:28:39.825Z,35.30
2018-01-12T08:29:39.841Z,34.50
2018-01-12T08:30:39.848Z,35.10
2018-01-12T08:31:39.859Z,33.80
2018-01-12T08:32:39.873Z,34.60
2018-01-12T08:33:39.881Z,34.00
2018-01-12T08:34:39.893Z,35.10
2018-01-12T08:35:39.906Z,34.80
2018-01-12T08:36:39.908Z,36.40
2018-01-12T08:37:39.937Z,35.50
2018-01-12T08:38:39.938Z,33.80
2018-01-12T08:39:39.948Z,33.40
2018-01-12T08:40:39.970Z,35.10
2018-01-12T08:41:39.965Z,34.70
2018-01-12T08:42:39.986Z,35.70
2018-01-12T08:43:39.995Z,36.00
2018-01-12T08:44:40.012Z,33.90
2018-01-12T08:45:40.036Z,33.10
2018-01-12T08:46:40.030Z,35.50
2018-01-12T08:47:40.045Z,33.90
2018-01-12T08:48:40.060Z,35.40
2018-01-12T08:49:40.065Z,34.20
2018-01-12T08:50:40.070Z,34.70
2018-01-12T08:51:40.099Z,33.80
2018-01-12T08:52:40.107Z,33.10
2018-01-12T08:53:40.109Z,35.60
2018-01-12T08:54:40.118Z,34.80
2018-01-12T08:55:40.134Z,33.80
2018-01-12T08:56:40.148Z,34.10
2018-01-12T08:57:40.159Z,35.80
2018-01-12T08:58:40.173Z,35.40
2018-01-12T08:59:40.175Z,34.80
2018-01-12T09:00:40.186Z,35.30
2018-01-12T09:01:40.206Z,35.90
2018-01-12T09:02:40.214Z,34.10
2018-01-12T09:03:40.223Z,35.10
2018-01-12T09:04:40.243Z,35.20
2018-01-12T09:05:40.242Z,33.80
2018-01-12T09:06:40.262Z,32.30
2018-01-12T09:07:40.272Z,34.70
2018-01-12T09:08:40.287Z,35.10
2018-01-12T09:09:40.297Z,35.20
2018-01-12T09:10:40.300Z,34.60
2018-01-12T09:11:40.319Z,46.00
2018-01-12T09:12:40.336Z,37.00
2018-01-12T09:13:40.344Z,33.40
2018-01-12T09:14:40.347Z,34.00
2018-01-12T09:15:40.375Z,33.90
2018-01-12T09:16:40.376Z,34.90
2018-01-12T09:17:40.385Z,34.80
2018-01-12T09:18:40.394Z,35.30
2018-01-12T09:19:40.411Z,35.80
2018-01-12T09:20:40.432Z,34.60
2018-01-12T09:21:40.441Z,35.00
2018-01-12T09:22:40.444Z,34.50
2018-01-12T09:23:40.458Z,34.10
2018-01-12T09:24:40.474Z,34.50
2018-01-12T09:25:40.482Z,34.50
2018-01-12T09:26:40.496Z,33.30
2018-01-12T09:27:40.503Z,34.30
2018-01-12T09:28:40.520Z,33.70
2018-01-12T09:29:40.536Z,33.00
2018-01-12T09:30:40.541Z,34.10
2018-01-12T09:31:40.553Z,35.30
2018-01-12T09:32:40.559Z,34.90
2018-01-12T09:33:40.578Z,32.90
2018-01-12T09:34:40.587Z,33.80
2018-01-12T09:35:40.605Z,35.10
2018-01-12T09:36:40.605Z,34.50
2018-01-12T09:37:40.614Z,35.40
2018-01-12T09:38:40.643Z,35.40
2018-01-12T09:39:40.643Z,37.10
2018-01-12T09:40:40.652Z,36.40
2018-01-12T09:41:40.669Z,36.10
2018-01-12T09:42:40.682Z,34.70
2018-01-12T09:43:40.698Z,35.00
2018-01-12T09:44:40.713Z,35.30
2018-01-12T09:45:40.710Z,34.80
2018-01-12T09:46:40.737Z,33.30
2018-01-12T09:47:40.739Z,34.50
2018-01-12T09:48:40.755Z,33.70
2018-01-12T09:49:40.777Z,32.70
2018-01-12T09:50:40.774Z,33.40
2018-01-12T09:51:40.792Z,34.30
2018-01-12T09:52:40.803Z,36.60
2018-01-12T09:53:40.812Z,35.20
2018-01-12T09:54:40.814Z,35.90
2018-01-12T09:55:40.836Z,36.00
2018-01-12T09:56:40.846Z,34.90
2018-01-12T09:57:40.854Z,34.60
2018-01-12T09:58:40.863Z,36.00
2018-01-12T09:59:40.872Z,34.30
2018-01-12T10:00:40.893Z,34.80
2018-01-12T10:01:40.908Z,35.00
2018-01-12T10:02:40.910Z,34.50
2018-01-12T10:03:40.927Z,34.50
2018-01-12T10:04:40.940Z,34.60
2018-01-12T10:05:40.950Z,31.40
2018-01-12T10:06:40.965Z,33.30
2018-01-12T10:07:40.975Z,34.80
2018-01-12T10:08:40.988Z,34.70
2018-01-12T10:09:40.998Z,33.70
2018-01-12T10:10:41.008Z,33.10
2018-01-12T10:11:41.022Z,33.70
2018-01-12T10:12:41.026Z,35.70
2018-01-12T10:13:41.046Z,35.40
2018-01-12T10:14:41.054Z,34.70
2018-01-12T10:15:41.072Z,35.50
2018-01-12T10:16:41.083Z,34.20
2018-01-12T10:17:41.088Z,35.50
2018-01-12T10:18:41.102Z,33.60
2018-01-12T10:19:41.118Z,35.20
2018-01-12T10:20:41.128Z,37.80
2018-01-12T10:21:41.141Z,36.80
2018-01-12T10:22:41.151Z,33.80
2018-01-12T10:23:41.167Z,33.80
2018-01-12T10:24:41.170Z,33.20
2018-01-12T10:25:41.183Z,34.90
2018-01-12T10:26:41.198Z,34.90
2018-01-12T10:27:41.209Z,33.40
2018-01-12T10:28:41.217Z,34.40
2018-01-12T10:29:41.227Z,35.00
2018-01-12T10:30:41.240Z,34.30
2018-01-12T10:31:41.263Z,34.60
2018-01-12T10:32:41.272Z,33.50
2018-01-12T10:33:41.281Z,34.40
2018-01-12T10:34:41.290Z,33.40
2018-01-12T10:35:41.293Z,33.80
2018-01-12T10:36:41.319Z,34.50
2018-01-12T10:37:41.322Z,34.90
2018-01-12T10:38:41.330Z,31.70
2018-01-12T10:39:41.340Z,32.00
2018-01-12T10:40:41.368Z,32.50
2018-01-12T10:41:41.390Z,32.60
2018-01-12T10:42:41.379Z,32.00
2018-01-12T10:43:41.388Z,32.20
2018-01-12T10:44:41.409Z,32.40
2018-01-12T10:45:41.424Z,31.90
2018-01-12T10:46:41.426Z,32.50
2018-01-12T10:47:41.443Z,33.40
2018-01-12T10:48:41.464Z,33.80
2018-01-12T10:49:41.466Z,33.20
2018-01-12T10:50:41.476Z,33.60
2018-01-12T10:51:41.484Z,34.10
2018-01-12T10:52:41.512Z,32.20
2018-01-12T10:53:41.521Z,32.50
2018-01-12T10:54:41.536Z,32.60
2018-01-12T10:55:41.539Z,33.10
2018-01-12T10:56:41.542Z,34.00
2018-01-12T10:57:41.593Z,35.20
2018-01-12T10:58:41.571Z,33.70
2018-01-12T10:59:41.580Z,33.40
2018-01-12T11:00:41.589Z,34.40
2018-01-12T11:01:41.617Z,34.70
2018-01-12T11:02:41.618Z,33.80
2018-01-12T11:03:41.628Z,34.40
2018-01-12T11:04:41.637Z,35.00
2018-01-12T11:05:41.665Z,33.30
2018-01-12T11:06:41.674Z,33.80
2018-01-12T11:07:41.684Z,32.70
2018-01-12T11:08:41.693Z,32.30
2018-01-12T11:09:41.706Z,33.20
2018-01-12T11:10:41.715Z,34.50
2018-01-12T11:11:41.729Z,33.20
2018-01-12T11:12:41.734Z,36.10
2018-01-12T11:13:41.754Z,33.70
2018-01-12T11:14:41.763Z,34.90
2018-01-12T11:15:41.779Z,34.00
2018-01-12T11:16:41.781Z,34.90
2018-01-12T11:17:41.810Z,35.80
2018-01-12T11:18:41.812Z,34.30
2018-01-12T11:19:41.823Z,32.80
2018-01-12T11:20:41.830Z,33.70
2018-01-12T11:21:41.851Z,34.60
2018-01-12T11:22:41.859Z,31.50
2018-01-12T11:23:41.868Z,34.40
2018-01-12T11:24:41.889Z,33.30
2018-01-12T11:25:41.887Z,34.50
2018-01-12T11:26:41.907Z,33.90
2018-01-12T11:27:41.916Z,33.00
2018-01-12T11:28:41.926Z,34.10
2018-01-12T11:29:41.935Z,35.20
2018-01-12T11:30:41.956Z,35.00
2018-01-12T11:31:41.964Z,34.90
2018-01-12T11:32:41.980Z,34.20
2018-01-12T11:33:41.983Z,34.20
2018-01-12T11:34:42.011Z,35.60
2018-01-12T11:35:42.014Z,33.40
2018-01-12T11:36:42.021Z,35.50
2018-01-12T11:37:42.031Z,34.20
2018-01-12T11:38:42.053Z,36.20
2018-01-12T11:39:42.067Z,34.50
2018-01-12T11:40:42.070Z,33.90
2018-01-12T11:41:42.078Z,34.40
2018-01-12T11:42:42.120Z,34.00
2018-01-12T11:43:42.115Z,34.80
2018-01-12T11:44:42.118Z,34.60
2018-01-12T11:45:42.134Z,35.70
2018-01-12T11:46:42.148Z,35.10
2018-01-12T11:47:42.176Z,35.70
2018-01-12T11:48:42.172Z,34.60
2018-01-12T11:49:42.175Z,34.60
2018-01-12T11:50:42.195Z,34.20
2018-01-12T11:51:42.205Z,35.50
2018-01-12T11:52:42.219Z,34.80
2018-01-12T11:53:42.222Z,35.50
2018-01-12T11:54:42.232Z,33.70
2018-01-12T11:55:42.260Z,36.00
2018-01-12T11:56:42.270Z,35.50
2018-01-12T11:57:42.270Z,34.50
2018-01-12T11:58:42.280Z,34.30
2018-01-12T11:59:42.308Z,36.50
2018-01-12T12:00:42.311Z,35.00
2018-01-12T12:01:42.321Z,33.10
2018-01-12T12:02:42.329Z,32.40
2018-01-12T12:03:42.350Z,33.70
2018-01-12T12:04:42.370Z,34.80
2018-01-12T12:05:42.366Z,36.50
2018-01-12T12:06:42.376Z,35.50
2018-01-12T12:07:42.404Z,35.30
2018-01-12T12:08:42.436Z,35.20
2018-01-12T12:09:42.415Z,37.20
2018-01-12T12:10:42.424Z,34.90
2018-01-12T12:11:42.445Z,36.00
2018-01-12T12:12:42.460Z,35.50
2018-01-12T12:13:42.462Z,36.70
2018-01-12T12:14:42.482Z,35.00
2018-01-12T12:15:42.493Z,36.60
2018-01-12T12:16:42.501Z,34.50
2018-01-12T12:17:42.511Z,35.60
2018-01-12T12:18:42.520Z,35.10
2018-01-12T12:19:42.547Z,36.10
2018-01-12T12:20:42.550Z,33.60
2018-01-12T12:21:42.566Z,34.40
2018-01-12T12:22:42.575Z,33.90
2018-01-12T12:23:42.590Z,34.40
2018-01-12T12:24:42.598Z,31.70
2018-01-12T12:25:42.615Z,32.70
2018-01-12T12:26:42.621Z,32.70
2018-01-12T12:27:42.637Z,34.60
2018-01-12T12:28:42.653Z,33.00
2018-01-12T12:29:42.662Z,34.60
2018-01-12T12:30:42.665Z,34.50
2018-01-12T12:31:42.673Z,33.00
2018-01-12T12:32:42.700Z,34.40
2018-01-12T12:33:42.703Z,35.10
2018-01-12T12:34:42.717Z,35.90
2018-01-12T12:35:42.721Z,35.60
2018-01-12T12:36:42.748Z,35.30
2018-01-12T12:37:42.750Z,34.80
2018-01-12T12:38:42.783Z,35.70
2018-01-12T12:39:42.775Z,36.60
2018-01-12T12:40:42.797Z,35.30
2018-01-12T12:41:42.799Z,35.60
2018-01-12T12:42:42.819Z,35.70
2018-01-12T12:43:42.823Z,34.90
2018-01-12T12:44:42.845Z,35.20
2018-01-12T12:45:42.860Z,35.00
2018-01-12T12:46:42.856Z,36.60
2018-01-12T12:47:42.871Z,37.90
2018-01-12T12:48:42.893Z,35.40
2018-01-12T12:49:42.902Z,42.40
2018-01-12T12:50:42.930Z,40.10
2018-01-12T12:51:42.914Z,35.70
2018-01-12T12:52:42.922Z,34.50